createdAt,value
2019-03-20T00:00:37.551Z,102261.69
2019-03-20T00:01:43.996Z,102265.81
2019-03-20T00:02:46.438Z,102267.19
2019-03-20T00:03:49.912Z,102269.11
2019-03-20T00:04:53.417Z,102264.16
2019-03-20T00:05:56.975Z,102268.28
2019-03-20T00:07:00.531Z,102268.02
2019-03-20T00:08:04.072Z,102270.21
2019-03-20T00:09:09.387Z,102269.11
2019-03-20T00:10:13.038Z,102270.22
2019-03-20T00:11:16.537Z,102269.66
2019-03-20T00:12:20.097Z,102273.78
2019-03-20T00:13:23.647Z,102275.70
2019-03-20T00:14:27.131Z,102271.31
2019-03-20T00:15:30.684Z,102271.31
2019-03-20T00:16:34.151Z,102273.75
2019-03-20T00:17:37.780Z,102267.98
2019-03-20T00:18:41.285Z,102265.24
2019-03-20T00:19:44.766Z,102262.50
2019-03-20T00:20:48.338Z,102269.36
2019-03-20T00:21:51.816Z,102268.27
2019-03-20T00:22:55.372Z,102271.02
2019-03-20T00:23:58.835Z,102273.21
2019-03-20T00:25:02.308Z,102274.58
2019-03-20T00:26:05.813Z,102275.41
2019-03-20T00:27:09.298Z,102272.11
2019-03-20T00:28:12.860Z,102274.31
2019-03-20T00:29:16.407Z,102278.16
2019-03-20T00:30:22.775Z,102269.92
2019-03-20T00:31:26.271Z,102275.96
2019-03-20T00:32:29.852Z,102268.27
2019-03-20T00:33:33.321Z,102275.14
2019-03-20T00:34:36.869Z,102270.74
2019-03-20T00:35:40.379Z,102268.55
2019-03-20T00:36:43.913Z,102263.87
2019-03-20T00:37:47.528Z,102269.09
2019-03-20T00:38:51.073Z,102272.12
2019-03-20T00:39:54.712Z,102264.70
2019-03-20T00:40:58.285Z,102273.22
2019-03-20T00:42:01.830Z,102273.77
2019-03-20T00:43:05.381Z,102276.52
2019-03-20T00:44:08.956Z,102280.63
2019-03-20T00:45:14.727Z,102278.44
2019-03-20T00:46:18.226Z,102280.91
2019-03-20T00:47:21.871Z,102278.16
2019-03-20T00:48:25.351Z,102281.45
2019-03-20T00:49:28.835Z,102280.08
2019-03-20T00:50:32.384Z,102277.06
2019-03-20T00:51:35.969Z,102278.71
2019-03-20T00:52:39.577Z,102278.71
2019-03-20T00:53:43.060Z,102277.61
2019-03-20T00:54:46.532Z,102278.98
2019-03-20T00:55:50.013Z,102281.73
2019-03-20T00:56:53.734Z,102280.64
2019-03-20T00:57:57.465Z,102275.70
2019-03-20T00:59:00.954Z,102275.97
2019-03-20T01:00:07.491Z,102272.95
2019-03-20T01:01:10.970Z,102279.81
2019-03-20T01:02:14.614Z,102274.88
2019-03-20T01:03:18.164Z,102279.51
2019-03-20T01:04:21.636Z,102280.64
2019-03-20T01:05:25.254Z,102278.14
2019-03-20T01:06:28.767Z,102282.25
2019-03-20T01:07:32.448Z,102274.56
2019-03-20T01:08:35.926Z,102275.39
2019-03-20T01:09:39.406Z,102270.45
2019-03-20T01:10:42.951Z,102274.02
2019-03-20T01:11:46.431Z,102269.34
2019-03-20T01:12:50.502Z,102270.17
2019-03-20T01:13:53.985Z,102277.31
2019-03-20T01:14:57.460Z,102278.41
2019-03-20T01:16:00.951Z,102281.43
2019-03-20T01:17:04.552Z,102275.66
2019-03-20T01:18:08.133Z,102283.91
2019-03-20T01:19:11.681Z,102275.39
2019-03-20T01:20:19.652Z,102272.38
2019-03-20T01:21:23.212Z,102278.41
2019-03-20T01:22:26.688Z,102270.73
2019-03-20T01:23:30.258Z,102272.65
2019-03-20T01:24:34.293Z,102266.33
2019-03-20T01:25:37.775Z,102276.22
2019-03-20T01:26:41.301Z,102271.00
2019-03-20T01:27:44.809Z,102274.84
2019-03-20T01:28:48.320Z,102277.05
2019-03-20T01:29:51.817Z,102276.77
2019-03-20T01:30:55.362Z,102280.06
2019-03-20T01:31:58.853Z,102275.39
2019-03-20T01:33:15.936Z,102279.79
2019-03-20T01:34:19.530Z,102277.31
2019-03-20T01:35:24.047Z,102282.27
2019-03-20T01:36:27.770Z,102282.81
2019-03-20T01:37:31.318Z,102281.16
2019-03-20T01:38:34.867Z,102281.16
2019-03-20T01:39:38.431Z,102280.30
2019-03-20T01:40:41.979Z,102278.94
2019-03-20T01:41:45.470Z,102276.73
2019-03-20T01:42:48.937Z,102269.88
2019-03-20T01:43:52.411Z,102267.95
2019-03-20T01:44:56.019Z,102263.02
2019-03-20T01:45:59.527Z,102265.76
2019-03-20T01:47:03.011Z,102260.27
2019-03-20T01:48:06.644Z,102259.99
2019-03-20T01:49:10.117Z,102258.62
2019-03-20T01:50:13.758Z,102256.70
2019-03-20T01:51:21.640Z,102259.72
2019-03-20T01:52:25.127Z,102264.11
2019-03-20T01:53:28.642Z,102263.56
2019-03-20T01:54:32.120Z,102259.17
2019-03-20T01:55:35.695Z,102266.58
2019-03-20T01:56:39.184Z,102266.31
2019-03-20T01:57:42.724Z,102270.97
2019-03-20T01:58:46.195Z,102266.31
2019-03-20T01:59:49.750Z,102268.50
2019-03-20T02:00:53.298Z,102269.88
2019-03-20T02:01:56.844Z,102264.39
2019-03-20T02:03:00.346Z,102265.48
2019-03-20T02:04:04.007Z,102259.72
2019-03-20T02:05:08.060Z,102269.05
2019-03-20T02:06:11.573Z,102267.13
2019-03-20T02:07:15.123Z,102267.41
2019-03-20T02:08:18.676Z,102269.60
2019-03-20T02:09:22.175Z,102263.02
2019-03-20T02:10:25.868Z,102267.41
2019-03-20T02:11:29.381Z,102269.05
2019-03-20T02:12:33.018Z,102262.73
2019-03-20T02:13:36.510Z,102262.19
2019-03-20T02:14:40.018Z,102264.66
2019-03-20T02:15:43.597Z,102269.33
2019-03-20T02:16:47.306Z,102273.45
2019-03-20T02:17:50.912Z,102276.19
2019-03-20T02:18:54.420Z,102283.87
2019-03-20T02:19:57.941Z,102282.23
2019-03-20T02:21:01.501Z,102280.86
2019-03-20T02:22:05.174Z,102280.58
2019-03-20T02:23:08.649Z,102278.11
2019-03-20T02:24:12.271Z,102273.72
2019-03-20T02:25:16.239Z,102273.99
2019-03-20T02:26:19.740Z,102267.41
2019-03-20T02:27:23.264Z,102270.42
2019-03-20T02:28:26.926Z,102268.23
2019-03-20T02:29:30.491Z,102276.73
2019-03-20T02:30:34.053Z,102283.33
2019-03-20T02:31:37.624Z,102287.72
2019-03-20T02:32:41.213Z,102284.97
2019-03-20T02:33:44.774Z,102288.81
2019-03-20T02:34:48.260Z,102289.09
2019-03-20T02:35:52.483Z,102283.60
2019-03-20T02:36:56.172Z,102283.60
2019-03-20T02:37:59.700Z,102278.39
2019-03-20T02:39:03.277Z,102283.60
2019-03-20T02:40:11.990Z,102287.72
2019-03-20T02:41:15.478Z,102284.16
2019-03-20T02:42:18.963Z,102284.70
2019-03-20T02:43:22.770Z,102287.99
2019-03-20T02:44:26.340Z,102288.55
2019-03-20T02:45:29.881Z,102294.58
2019-03-20T02:46:33.346Z,102289.92
2019-03-20T02:47:36.915Z,102286.90
2019-03-20T02:48:40.423Z,102290.19
2019-03-20T02:49:43.924Z,102287.17
2019-03-20T02:50:47.460Z,102280.30
2019-03-20T02:51:51.035Z,102285.80
2019-03-20T02:52:54.648Z,102286.89
2019-03-20T02:53:58.281Z,102284.70
2019-03-20T02:55:02.045Z,102280.30
2019-03-20T02:56:05.526Z,102282.78
2019-03-20T02:57:09.024Z,102283.05
2019-03-20T02:58:12.634Z,102282.78
2019-03-20T02:59:16.090Z,102280.82
2019-03-20T03:00:22.752Z,102283.56
2019-03-20T03:01:26.325Z,102280.82
2019-03-20T03:02:29.863Z,102279.17
2019-03-20T03:03:33.379Z,102280.27
2019-03-20T03:04:36.865Z,102278.35
2019-03-20T03:05:40.450Z,102278.90
2019-03-20T03:06:44.087Z,102274.51
2019-03-20T03:07:47.650Z,102272.03
2019-03-20T03:08:51.171Z,102274.78
2019-03-20T03:09:54.674Z,102273.95
2019-03-20T03:10:58.148Z,102273.95
2019-03-20T03:12:01.660Z,102266.82
2019-03-20T03:13:05.215Z,102266.82
2019-03-20T03:14:08.791Z,102270.66
2019-03-20T03:15:13.717Z,102273.41
2019-03-20T03:16:17.222Z,102267.09
2019-03-20T03:17:20.725Z,102266.27
2019-03-20T03:18:24.221Z,102269.30
2019-03-20T03:19:27.732Z,102270.39
2019-03-20T03:20:31.227Z,102271.77
2019-03-20T03:21:34.738Z,102270.11
2019-03-20T03:22:38.310Z,102269.02
2019-03-20T03:23:41.853Z,102264.08
2019-03-20T03:24:45.443Z,102269.84
2019-03-20T03:25:50.316Z,102270.11
2019-03-20T03:26:53.925Z,102269.84
2019-03-20T03:27:57.993Z,102271.76
2019-03-20T03:29:01.480Z,102270.11
2019-03-20T03:30:15.653Z,102268.19
2019-03-20T03:31:19.229Z,102264.08
2019-03-20T03:32:22.731Z,102268.19
2019-03-20T03:33:26.546Z,102272.03
2019-03-20T03:34:30.069Z,102267.92
2019-03-20T03:35:33.649Z,102273.95
2019-03-20T03:36:37.118Z,102270.38
2019-03-20T03:37:40.675Z,102272.30
2019-03-20T03:38:44.246Z,102276.94
2019-03-20T03:39:47.719Z,102281.36
2019-03-20T03:40:51.258Z,102273.95
2019-03-20T03:41:55.145Z,102273.95
2019-03-20T03:42:58.665Z,102273.34
2019-03-20T03:44:02.418Z,102276.42
2019-03-20T03:45:09.237Z,102282.73
2019-03-20T03:46:12.756Z,102281.36
2019-03-20T03:47:16.301Z,102281.05
2019-03-20T03:48:19.980Z,102287.67
2019-03-20T03:49:23.567Z,102289.05
2019-03-20T03:50:27.075Z,102289.05
2019-03-20T03:51:31.772Z,102285.48
2019-03-20T03:52:35.288Z,102284.38
2019-03-20T03:53:38.766Z,102287.67
2019-03-20T03:54:42.317Z,102291.24
2019-03-20T03:55:45.927Z,102288.78
2019-03-20T03:56:49.644Z,102287.13
2019-03-20T03:57:53.398Z,102297.84
2019-03-20T03:58:56.903Z,102299.80
2019-03-20T04:00:00.509Z,102298.42
2019-03-20T04:01:04.126Z,102302.55
2019-03-20T04:02:07.758Z,102307.77
2019-03-20T04:03:11.311Z,102306.97
2019-03-20T04:04:14.922Z,102312.73
2019-03-20T04:05:18.537Z,102311.95
2019-03-20T04:06:34.958Z,102308.92
2019-03-20T04:07:27.605Z,102313.31
2019-03-20T04:08:31.231Z,102310.31
2019-03-20T04:09:34.732Z,102309.20
2019-03-20T04:10:38.351Z,102310.84
2019-03-20T04:11:41.831Z,102319.66
2019-03-20T04:12:45.497Z,102316.92
2019-03-20T04:13:49.057Z,102315.28
2019-03-20T04:14:52.548Z,102312.55
2019-03-20T04:15:56.059Z,102314.17
2019-03-20T04:16:59.535Z,102314.45
2019-03-20T04:18:03.220Z,102313.33
2019-03-20T04:19:06.764Z,102310.31
2019-03-20T04:20:13.104Z,102310.83
2019-03-20T04:21:16.573Z,102312.20
2019-03-20T04:22:20.208Z,102312.73
2019-03-20T04:23:23.814Z,102310.56
2019-03-20T04:24:27.328Z,102308.62
2019-03-20T04:25:30.951Z,102308.33
2019-03-20T04:26:34.442Z,102307.23
2019-03-20T04:27:37.933Z,102309.99
2019-03-20T04:28:41.550Z,102309.99
2019-03-20T04:29:45.205Z,102302.56
2019-03-20T04:30:48.679Z,102303.69
2019-03-20T04:31:52.258Z,102311.38
2019-03-20T04:32:55.806Z,102310.56
2019-03-20T04:33:59.385Z,102307.51
2019-03-20T04:35:02.882Z,102305.59
2019-03-20T04:36:06.369Z,102308.91
2019-03-20T04:37:09.957Z,102313.83
2019-03-20T04:38:13.524Z,102315.74
2019-03-20T04:39:17.013Z,102316.83
2019-03-20T04:40:20.665Z,102319.84
2019-03-20T04:41:24.164Z,102316.55
2019-03-20T04:42:27.706Z,102321.47
2019-03-20T04:43:31.201Z,102322.83
2019-03-20T04:44:34.715Z,102325.58
2019-03-20T04:45:38.206Z,102322.28
2019-03-20T04:46:41.711Z,102326.38
2019-03-20T04:47:45.262Z,102322.80
2019-03-20T04:48:48.841Z,102330.23
2019-03-20T04:49:52.347Z,102329.97
2019-03-20T04:50:55.843Z,102326.38
2019-03-20T04:51:59.346Z,102320.28
2019-03-20T04:53:02.965Z,102325.48
2019-03-20T04:54:06.621Z,102323.55
2019-03-20T04:55:10.484Z,102329.34
2019-03-20T04:56:14.078Z,102326.59
2019-03-20T04:57:17.626Z,102328.78
2019-03-20T04:58:21.116Z,102328.25
2019-03-20T04:59:24.630Z,102323.55
2019-03-20T05:00:28.322Z,102324.13
2019-03-20T05:01:34.581Z,102318.58
2019-03-20T05:02:38.064Z,102314.42
2019-03-20T05:03:41.561Z,102312.77
2019-03-20T05:04:45.047Z,102314.42
2019-03-20T05:05:48.644Z,102313.31
2019-03-20T05:06:58.726Z,102313.88
2019-03-20T05:07:57.347Z,102317.42
2019-03-20T05:09:00.924Z,102316.05
2019-03-20T05:10:07.273Z,102327.06
2019-03-20T05:11:10.767Z,102328.44
2019-03-20T05:12:14.335Z,102316.05
2019-03-20T05:13:17.901Z,102321.53
2019-03-20T05:14:21.461Z,102319.31
2019-03-20T05:15:25.128Z,102315.75
2019-03-20T05:16:28.718Z,102321.81
2019-03-20T05:17:32.416Z,102320.46
2019-03-20T05:18:35.992Z,102320.45
2019-03-20T05:19:39.762Z,102324.05
2019-03-20T05:20:43.335Z,102321.58
2019-03-20T05:21:47.008Z,102323.81
2019-03-20T05:22:50.544Z,102328.52
2019-03-20T05:23:54.013Z,102318.59
2019-03-20T05:24:57.509Z,102327.14
2019-03-20T05:26:01.009Z,102322.20
2019-03-20T05:27:04.894Z,102327.16
2019-03-20T05:28:08.452Z,102329.36
2019-03-20T05:29:14.896Z,102322.75
2019-03-20T05:30:18.397Z,102323.55
2019-03-20T05:31:21.950Z,102329.89
2019-03-20T05:32:25.517Z,102334.27
2019-03-20T05:33:29.034Z,102329.57
2019-03-20T05:34:32.517Z,102337.55
2019-03-20T05:35:36.078Z,102331.50
2019-03-20T05:36:39.591Z,102337.28
2019-03-20T05:37:43.168Z,102337.28
2019-03-20T05:38:46.658Z,102333.14
2019-03-20T05:39:50.216Z,102332.61
2019-03-20T05:40:53.710Z,102337.58
2019-03-20T05:41:57.206Z,102343.38
2019-03-20T05:43:00.788Z,102335.13
2019-03-20T05:44:04.352Z,102342.83
2019-03-20T05:45:13.463Z,102340.11
2019-03-20T05:46:16.943Z,102344.23
2019-03-20T05:47:20.434Z,102342.02
2019-03-20T05:48:24.078Z,102348.36
2019-03-20T05:49:27.559Z,102349.20
2019-03-20T05:50:31.100Z,102343.97
2019-03-20T05:51:34.707Z,102349.44
2019-03-20T05:52:38.203Z,102348.91
2019-03-20T05:53:41.908Z,102354.69
2019-03-20T05:54:45.405Z,102363.48
2019-03-20T05:55:48.975Z,102356.34
2019-03-20T05:56:52.478Z,102352.76
2019-03-20T05:57:56.032Z,102351.92
2019-03-20T05:58:59.567Z,102352.74
2019-03-20T06:00:03.865Z,102350.28
2019-03-20T06:01:07.373Z,102348.89
2019-03-20T06:02:10.932Z,102346.14
2019-03-20T06:03:14.607Z,102351.37
2019-03-20T06:04:18.307Z,102349.73
2019-03-20T06:05:22.038Z,102351.67
2019-03-20T06:06:25.572Z,102344.23
2019-03-20T06:07:29.082Z,102345.34
2019-03-20T06:08:32.585Z,102351.12
2019-03-20T06:09:36.104Z,102348.63
2019-03-20T06:10:39.623Z,102354.39
2019-03-20T06:11:43.264Z,102351.38
2019-03-20T06:12:46.937Z,102355.77
2019-03-20T06:13:50.460Z,102358.50
2019-03-20T06:14:53.978Z,102359.88
2019-03-20T06:15:57.473Z,102361.26
2019-03-20T06:17:00.966Z,102368.14
2019-03-20T06:18:04.534Z,102368.70
2019-03-20T06:19:08.038Z,102363.74
2019-03-20T06:20:14.689Z,102378.89
2019-03-20T06:21:18.190Z,102376.97
2019-03-20T06:22:22.631Z,102372.55
2019-03-20T06:23:26.314Z,102369.82
2019-03-20T06:24:29.821Z,102368.44
2019-03-20T06:25:33.407Z,102368.99
2019-03-20T06:26:36.901Z,102372.29
2019-03-20T06:27:40.397Z,102372.84
2019-03-20T06:28:43.963Z,102371.73
2019-03-20T06:29:47.461Z,102367.91
2019-03-20T06:30:50.973Z,102374.27
2019-03-20T06:31:54.462Z,102375.38
2019-03-20T06:32:59.785Z,102379.78
2019-03-20T06:34:03.352Z,102378.70
2019-03-20T06:35:08.891Z,102379.52
2019-03-20T06:36:12.634Z,102376.77
2019-03-20T06:37:16.278Z,102378.44
2019-03-20T06:38:19.784Z,102379.57
2019-03-20T06:39:23.349Z,102372.14
2019-03-20T06:40:26.818Z,102380.41
2019-03-20T06:41:32.366Z,102381.22
2019-03-20T06:42:35.643Z,102390.31
2019-03-20T06:43:39.167Z,102390.60
2019-03-20T06:44:42.718Z,102395.29
2019-03-20T06:45:46.381Z,102393.37
2019-03-20T06:46:49.970Z,102395.55
2019-03-20T06:47:53.524Z,102396.37
2019-03-20T06:48:57.195Z,102400.23
2019-03-20T06:50:00.712Z,102390.89
2019-03-20T06:51:04.356Z,102394.19
2019-03-20T06:52:07.923Z,102391.43
2019-03-20T06:53:11.427Z,102385.93
2019-03-20T06:54:14.903Z,102391.70
2019-03-20T06:55:18.545Z,102396.93
2019-03-20T06:56:22.023Z,102395.83
2019-03-20T06:57:25.542Z,102391.42
2019-03-20T06:58:29.041Z,102395.02
2019-03-20T06:59:35.611Z,102396.65
2019-03-20T07:00:59.924Z,102395.25
2019-03-20T07:02:04.495Z,102394.70
2019-03-20T07:03:32.119Z,102396.10
2019-03-20T07:05:11.627Z,102402.41
2019-03-20T07:06:29.934Z,102401.01
2019-03-20T07:07:44.113Z,102393.87
2019-03-20T07:08:47.019Z,102392.23
2019-03-20T07:10:02.169Z,102400.50
2019-03-20T07:11:11.634Z,102398.58
2019-03-20T07:12:15.151Z,102400.48
2019-03-20T07:13:18.691Z,102403.23
2019-03-20T07:14:22.207Z,102399.13
2019-03-20T07:15:25.690Z,102399.40
2019-03-20T07:16:29.241Z,102396.89
2019-03-20T07:17:32.781Z,102400.17
2019-03-20T07:18:36.250Z,102401.55
2019-03-20T07:19:39.753Z,102401.23
2019-03-20T07:20:43.253Z,102398.73
2019-03-20T07:21:46.767Z,102402.25
2019-03-20T07:22:50.294Z,102397.50
2019-03-20T07:23:53.856Z,102405.48
2019-03-20T07:24:57.339Z,102406.78
2019-03-20T07:26:00.910Z,102409.27
2019-03-20T07:27:04.558Z,102410.60
2019-03-20T07:28:08.081Z,102415.00
2019-03-20T07:29:11.582Z,102413.05
2019-03-20T07:30:15.210Z,102409.20
2019-03-20T07:31:18.715Z,102411.69
2019-03-20T07:32:22.208Z,102411.41
2019-03-20T07:33:25.706Z,102412.25
2019-03-20T07:34:29.213Z,102414.45
2019-03-20T07:35:32.745Z,102418.34
2019-03-20T07:36:36.322Z,102416.16
2019-03-20T07:37:39.840Z,102418.09
2019-03-20T07:38:43.413Z,102417.25
2019-03-20T07:39:47.001Z,102419.75
2019-03-20T07:40:50.815Z,102421.42
2019-03-20T07:41:55.642Z,102419.25
2019-03-20T07:43:08.300Z,102423.39
2019-03-20T07:44:04.728Z,102424.50
2019-03-20T07:45:10.160Z,102428.38
2019-03-20T07:46:13.811Z,102426.75
2019-03-20T07:47:17.348Z,102430.34
2019-03-20T07:48:22.367Z,102432.28
2019-03-20T07:49:26.217Z,102439.70
2019-03-20T07:50:29.700Z,102434.77
2019-03-20T07:51:33.192Z,102432.03
2019-03-20T07:52:36.879Z,102435.34
2019-03-20T07:53:40.442Z,102433.16
2019-03-20T07:54:44.040Z,102435.34
2019-03-20T07:55:47.704Z,102436.73
2019-03-20T07:56:51.199Z,102436.20
2019-03-20T07:57:54.683Z,102431.52
2019-03-20T07:58:58.175Z,102430.42
2019-03-20T08:00:01.807Z,102434.55
2019-03-20T08:01:05.424Z,102429.84
2019-03-20T08:02:08.984Z,102429.58
2019-03-20T08:03:12.484Z,102430.39
2019-03-20T08:04:16.029Z,102432.31
2019-03-20T08:05:29.133Z,102437.55
2019-03-20T08:06:24.894Z,102431.77
2019-03-20T08:07:28.372Z,102433.98
2019-03-20T08:08:31.892Z,102442.80
2019-03-20T08:09:35.402Z,102439.22
2019-03-20T08:10:39.047Z,102440.05
2019-03-20T08:11:42.532Z,102432.09
2019-03-20T08:12:46.089Z,102435.95
2019-03-20T08:13:49.609Z,102434.30
2019-03-20T08:14:53.173Z,102442.28
2019-03-20T08:15:56.741Z,102435.95
2019-03-20T08:17:00.372Z,102435.10
2019-03-20T08:18:03.921Z,102435.10
2019-03-20T08:19:07.415Z,102435.39
2019-03-20T08:20:19.711Z,102438.70
2019-03-20T08:21:23.291Z,102435.39
2019-03-20T08:22:26.798Z,102435.37
2019-03-20T08:23:30.351Z,102440.86
2019-03-20T08:24:33.853Z,102441.69
2019-03-20T08:25:37.415Z,102443.89
2019-03-20T08:26:40.922Z,102442.23
2019-03-20T08:27:44.549Z,102444.71
2019-03-20T08:28:48.051Z,102443.06
2019-03-20T08:29:51.968Z,102449.95
2019-03-20T08:30:55.458Z,102446.94
2019-03-20T08:31:58.964Z,102448.59
2019-03-20T08:33:02.448Z,102454.38
2019-03-20T08:34:06.049Z,102451.91
2019-03-20T08:35:11.781Z,102455.22
2019-03-20T08:36:15.274Z,102455.48
2019-03-20T08:37:18.789Z,102468.70
2019-03-20T08:38:22.274Z,102463.20
2019-03-20T08:39:25.813Z,102457.69
2019-03-20T08:40:29.348Z,102468.97
2019-03-20T08:41:32.874Z,102466.22
2019-03-20T08:42:36.399Z,102459.33
2019-03-20T08:43:39.945Z,102466.48
2019-03-20T08:44:43.449Z,102472.81
2019-03-20T08:45:47.150Z,102464.03
2019-03-20T08:46:50.633Z,102465.94
2019-03-20T08:47:54.159Z,102469.80
2019-03-20T08:48:57.681Z,102478.06
2019-03-20T08:50:01.251Z,102473.66
2019-03-20T08:51:04.811Z,102481.09
2019-03-20T08:52:08.358Z,102477.50
2019-03-20T08:53:11.972Z,102474.75
2019-03-20T08:54:15.748Z,102478.61
2019-03-20T08:55:20.556Z,102482.46
2019-03-20T08:56:24.289Z,102479.44
2019-03-20T08:57:27.855Z,102482.46
2019-03-20T08:58:31.491Z,102485.22
2019-03-20T08:59:35.024Z,102482.73
2019-03-20T09:00:38.560Z,102480.53
2019-03-20T09:01:42.071Z,102480.53
2019-03-20T09:02:45.653Z,102483.00
2019-03-20T09:03:49.179Z,102488.23
2019-03-20T09:04:52.685Z,102482.73
2019-03-20T09:05:56.229Z,102490.99
2019-03-20T09:06:59.810Z,102491.27
2019-03-20T09:08:03.309Z,102491.00
2019-03-20T09:09:08.143Z,102489.35
2019-03-20T09:10:16.983Z,102487.16
2019-03-20T09:11:20.536Z,102492.66
2019-03-20T09:12:24.033Z,102487.16
2019-03-20T09:13:27.558Z,102494.31
2019-03-20T09:14:31.037Z,102484.96
2019-03-20T09:15:34.565Z,102494.57
2019-03-20T09:16:38.143Z,102493.47
2019-03-20T09:17:41.683Z,102491.52
2019-03-20T09:18:45.186Z,102493.47
2019-03-20T09:19:48.736Z,102493.20
2019-03-20T09:20:52.405Z,102497.33
2019-03-20T09:21:55.942Z,102492.08
2019-03-20T09:22:59.497Z,102489.90
2019-03-20T09:24:03.010Z,102491.00
2019-03-20T09:25:09.629Z,102491.25
2019-03-20T09:26:13.879Z,102494.03
2019-03-20T09:27:17.651Z,102493.72
2019-03-20T09:28:21.348Z,102494.84
2019-03-20T09:29:35.354Z,102498.69
2019-03-20T09:30:33.077Z,102494.00
2019-03-20T09:31:36.553Z,102493.17
2019-03-20T09:32:40.100Z,102498.41
2019-03-20T09:33:43.621Z,102493.45
2019-03-20T09:34:47.099Z,102495.11
2019-03-20T09:35:50.628Z,102490.44
2019-03-20T09:36:54.135Z,102490.98
2019-03-20T09:37:57.731Z,102496.20
2019-03-20T09:39:01.255Z,102496.20
2019-03-20T09:40:07.611Z,102493.45
2019-03-20T09:41:11.271Z,102494.02
2019-03-20T09:42:14.907Z,102494.86
2019-03-20T09:43:18.761Z,102494.84
2019-03-20T09:44:22.267Z,102494.84
2019-03-20T09:45:26.153Z,102502.02
2019-03-20T09:46:29.764Z,102496.80
2019-03-20T09:47:33.273Z,102499.80
2019-03-20T09:48:36.887Z,102500.09
2019-03-20T09:49:40.410Z,102497.61
2019-03-20T09:50:44.154Z,102497.88
2019-03-20T09:51:47.671Z,102502.57
2019-03-20T09:52:51.326Z,102496.52
2019-03-20T09:53:55.233Z,102501.72
2019-03-20T09:54:58.758Z,102500.34
2019-03-20T09:56:02.304Z,102500.63
2019-03-20T09:57:05.868Z,102499.52
2019-03-20T09:58:11.782Z,102495.66
2019-03-20T09:59:14.576Z,102500.89
2019-03-20T10:00:26.106Z,102503.40
2019-03-20T10:01:29.699Z,102500.09
2019-03-20T10:02:33.220Z,102500.34
2019-03-20T10:03:36.728Z,102496.20
2019-03-20T10:04:40.201Z,102493.47
2019-03-20T10:05:43.719Z,102497.87
2019-03-20T10:06:47.233Z,102493.73
2019-03-20T10:07:51.418Z,102492.09
2019-03-20T10:08:54.915Z,102487.95
2019-03-20T10:09:58.449Z,102484.94
2019-03-20T10:11:02.004Z,102483.83
2019-03-20T10:12:05.745Z,102481.91
2019-03-20T10:13:09.244Z,102484.13
2019-03-20T10:14:12.751Z,102483.57
2019-03-20T10:15:18.107Z,102477.52
2019-03-20T10:16:21.581Z,102479.72
2019-03-20T10:17:25.094Z,102482.75
2019-03-20T10:18:28.613Z,102486.05
2019-03-20T10:19:32.109Z,102483.30
2019-03-20T10:20:35.621Z,102487.69
2019-03-20T10:21:39.222Z,102485.48
2019-03-20T10:22:42.797Z,102483.28
2019-03-20T10:23:49.033Z,102479.16
2019-03-20T10:24:52.507Z,102479.16
2019-03-20T10:25:56.085Z,102482.73
2019-03-20T10:26:59.629Z,102482.19
2019-03-20T10:28:03.179Z,102492.36
2019-03-20T10:29:06.770Z,102490.17
2019-03-20T10:30:29.191Z,102489.06
2019-03-20T10:31:34.832Z,102486.31
2019-03-20T10:32:38.359Z,102492.38
2019-03-20T10:33:41.889Z,102493.48
2019-03-20T10:34:45.664Z,102491.53
2019-03-20T10:35:50.507Z,102498.97
2019-03-20T10:36:54.128Z,102492.64
2019-03-20T10:37:57.679Z,102496.77
2019-03-20T10:39:06.464Z,102497.59
2019-03-20T10:40:12.269Z,102490.16
2019-03-20T10:41:15.781Z,102488.53
2019-03-20T10:42:19.237Z,102490.73
2019-03-20T10:43:22.805Z,102492.38
2019-03-20T10:44:26.293Z,102489.08
2019-03-20T10:45:29.802Z,102494.86
2019-03-20T10:46:33.311Z,102497.88
2019-03-20T10:47:37.018Z,102497.34
2019-03-20T10:48:40.610Z,102498.99
2019-03-20T10:49:44.102Z,102500.09
2019-03-20T10:50:47.601Z,102493.48
2019-03-20T10:51:51.100Z,102492.64
2019-03-20T10:52:54.694Z,102500.08
2019-03-20T10:53:58.211Z,102490.72
2019-03-20T10:55:01.727Z,102493.20
2019-03-20T10:56:05.483Z,102489.34
2019-03-20T10:57:09.012Z,102485.77
2019-03-20T10:58:12.573Z,102489.34
2019-03-20T10:59:16.048Z,102488.79
2019-03-20T11:00:21.565Z,102487.69
2019-03-20T11:01:25.161Z,102492.09
2019-03-20T11:02:28.945Z,102492.09
2019-03-20T11:03:32.516Z,102494.84
2019-03-20T11:04:36.059Z,102491.81
2019-03-20T11:05:39.569Z,102489.89
2019-03-20T11:06:43.180Z,102494.84
2019-03-20T11:07:46.994Z,102492.37
2019-03-20T11:08:50.567Z,102487.13
2019-03-20T11:09:54.048Z,102489.62
2019-03-20T11:10:57.674Z,102488.52
2019-03-20T11:12:03.022Z,102492.37
2019-03-20T11:13:06.926Z,102492.09
2019-03-20T11:14:10.392Z,102496.22
2019-03-20T11:15:16.612Z,102484.67
2019-03-20T11:16:20.536Z,102487.70
2019-03-20T11:17:24.238Z,102492.92
2019-03-20T11:18:27.787Z,102489.89
2019-03-20T11:19:31.313Z,102487.41
2019-03-20T11:20:34.896Z,102488.52
2019-03-20T11:21:38.535Z,102479.14
2019-03-20T11:22:42.111Z,102483.00
2019-03-20T11:23:45.619Z,102488.78
2019-03-20T11:24:58.242Z,102484.13
2019-03-20T11:26:01.827Z,102485.51
2019-03-20T11:27:05.383Z,102483.00
2019-03-20T11:28:08.964Z,102477.25
2019-03-20T11:29:12.629Z,102475.30
2019-03-20T11:30:26.960Z,102482.20
2019-03-20T11:31:32.417Z,102478.08
2019-03-20T11:32:35.746Z,102474.75
2019-03-20T11:33:40.340Z,102482.19
2019-03-20T11:34:43.889Z,102475.85
2019-03-20T11:35:47.455Z,102482.73
2019-03-20T11:36:51.013Z,102480.25
2019-03-20T11:37:54.572Z,102484.66
2019-03-20T11:38:58.087Z,102484.41
2019-03-20T11:40:01.581Z,102487.41
2019-03-20T11:41:05.427Z,102481.90
2019-03-20T11:42:09.070Z,102488.53
2019-03-20T11:43:12.632Z,102483.85
2019-03-20T11:44:16.136Z,102488.80
2019-03-20T11:45:19.803Z,102492.38
2019-03-20T11:46:23.372Z,102490.18
2019-03-20T11:47:26.864Z,102481.09
2019-03-20T11:48:30.461Z,102487.16
2019-03-20T11:49:34.005Z,102486.03
2019-03-20T11:50:41.931Z,102483.83
2019-03-20T11:51:45.479Z,102484.39
2019-03-20T11:52:49.117Z,102487.41
2019-03-20T11:53:52.633Z,102483.56
2019-03-20T11:54:56.258Z,102483.84
2019-03-20T11:55:59.821Z,102475.58
2019-03-20T11:57:03.363Z,102483.00
2019-03-20T11:58:07.801Z,102480.52
2019-03-20T11:59:11.605Z,102481.90
2019-03-20T12:00:19.803Z,102486.33
2019-03-20T12:01:23.365Z,102479.45
2019-03-20T12:02:28.322Z,102480.83
2019-03-20T12:03:32.165Z,102482.47
2019-03-20T12:04:35.661Z,102479.45
2019-03-20T12:05:39.318Z,102473.66
2019-03-20T12:06:42.809Z,102482.47
2019-03-20T12:07:46.384Z,102475.59
2019-03-20T12:08:50.039Z,102479.72
2019-03-20T12:09:53.552Z,102482.47
2019-03-20T12:10:58.555Z,102480.55